createdAt,value
2022-08-08T00:01:16.938Z,38.58
2022-08-08T00:03:47.569Z,39.03
2022-08-08T00:06:28.458Z,39.69
2022-08-08T00:09:07.852Z,39.52
2022-08-08T00:12:02.858Z,40.02
2022-08-08T00:14:56.848Z,40.09
2022-08-08T00:17:47.922Z,40.53
2022-08-08T00:20:21.654Z,39.41
2022-08-08T00:22:50.466Z,39.45
2022-08-08T00:25:39.164Z,39.46
2022-08-08T00:28:33.987Z,39.71
2022-08-08T00:32:29.239Z,40.08
2022-08-08T00:34:18.058Z,39.85
2022-08-08T00:36:42.849Z,39.37
2022-08-08T00:41:06.310Z,39.46
2022-08-08T00:42:09.230Z,40.01
2022-08-08T00:44:50.993Z,40.47
2022-08-08T00:47:23.497Z,39.76
2022-08-08T00:50:09.256Z,39.78
2022-08-08T00:52:39.969Z,40.34
2022-08-08T00:55:16.739Z,39.99
2022-08-08T00:57:58.207Z,40.13
2022-08-08T01:00:27.057Z,41.02
2022-08-08T01:03:58.498Z,40.34
2022-08-08T01:06:05.840Z,39.30
2022-08-08T01:08:51.931Z,38.33
2022-08-08T01:11:29.717Z,40.08
2022-08-08T01:14:08.559Z,39.96
2022-08-08T01:16:59.323Z,40.13
2022-08-08T01:20:01.532Z,40.90
2022-08-08T01:22:50.586Z,39.74
2022-08-08T01:25:40.301Z,41.16
2022-08-08T01:28:18.046Z,40.38
2022-08-08T01:31:05.976Z,41.00
2022-08-08T01:34:00.126Z,40.60
2022-08-08T01:36:41.670Z,40.65
2022-08-08T01:39:23.871Z,40.89
2022-08-08T01:42:14.906Z,40.86
2022-08-08T01:44:53.306Z,40.96
2022-08-08T01:48:14.644Z,41.87
2022-08-08T01:50:26.994Z,41.61
2022-08-08T01:55:16.029Z,41.48
2022-08-08T01:56:31.023Z,40.95
2022-08-08T01:58:58.699Z,41.15
2022-08-08T02:02:00.330Z,40.28
2022-08-08T02:04:35.963Z,39.72
2022-08-08T02:07:05.529Z,40.18
2022-08-08T02:10:03.656Z,40.87
2022-08-08T02:12:33.573Z,39.78
2022-08-08T02:15:11.168Z,40.28
2022-08-08T02:18:10.294Z,40.97
2022-08-08T02:21:01.409Z,41.02
2022-08-08T02:23:37.545Z,40.81
2022-08-08T02:26:10.714Z,41.52
2022-08-08T02:28:51.699Z,40.55
2022-08-08T02:31:58.389Z,40.90
2022-08-08T02:34:39.326Z,40.87
2022-08-08T02:37:52.089Z,41.19
2022-08-08T02:40:37.068Z,41.64
2022-08-08T02:44:38.656Z,42.30
2022-08-08T02:46:21.532Z,41.34
2022-08-08T02:49:08.139Z,41.99
2022-08-08T02:52:02.094Z,42.28
2022-08-08T02:54:44.915Z,42.82
2022-08-08T02:57:44.639Z,42.90
2022-08-08T03:00:29.610Z,42.70
2022-08-08T03:05:05.455Z,43.14
2022-08-08T03:06:34.477Z,41.91
2022-08-08T03:09:21.364Z,42.14
2022-08-08T03:12:03.011Z,41.93
2022-08-08T03:15:56.483Z,41.69
2022-08-08T03:17:59.877Z,42.09
2022-08-08T03:20:51.374Z,44.05
2022-08-08T03:23:20.535Z,43.50
2022-08-08T03:25:50.254Z,42.51
2022-08-08T03:28:20.847Z,42.55
2022-08-08T03:31:07.423Z,42.32
2022-08-08T03:33:56.215Z,42.18
2022-08-08T03:36:27.508Z,42.32
2022-08-08T03:39:14.790Z,42.84
2022-08-08T03:41:43.146Z,43.06
2022-08-08T03:44:33.867Z,41.77
2022-08-08T03:47:14.068Z,40.94
2022-08-08T03:50:00.689Z,41.36
2022-08-08T03:52:31.280Z,42.00
2022-08-08T03:55:09.991Z,41.25
2022-08-08T03:58:09.419Z,41.72
2022-08-08T04:00:26.681Z,41.00
2022-08-08T04:03:11.741Z,41.57
2022-08-08T04:05:39.746Z,41.78
2022-08-08T04:08:33.171Z,41.65
2022-08-08T04:11:02.449Z,41.01
2022-08-08T04:14:04.242Z,41.23
2022-08-08T04:16:38.786Z,42.63
2022-08-08T04:19:23.735Z,41.96
2022-08-08T04:21:54.207Z,41.22
2022-08-08T04:24:28.884Z,42.48
2022-08-08T04:26:59.173Z,42.31
2022-08-08T04:29:27.074Z,42.16
2022-08-08T04:31:58.512Z,42.17
2022-08-08T04:34:31.899Z,41.83
2022-08-08T04:37:10.760Z,41.63
2022-08-08T04:40:03.784Z,42.57
2022-08-08T04:42:27.846Z,43.30
2022-08-08T04:44:57.353Z,43.01
2022-08-08T04:47:24.416Z,42.86
2022-08-08T04:50:01.392Z,43.27
2022-08-08T04:52:33.990Z,42.94
2022-08-08T04:55:04.205Z,43.70
2022-08-08T04:57:34.377Z,43.87
2022-08-08T05:00:02.500Z,43.70
2022-08-08T05:02:30.607Z,44.66
2022-08-08T05:04:59.507Z,45.56
2022-08-08T05:07:38.136Z,45.28
2022-08-08T05:10:12.911Z,43.60
2022-08-08T05:12:53.361Z,43.82
2022-08-08T05:15:31.535Z,44.14
2022-08-08T05:18:14.719Z,44.12
2022-08-08T05:20:50.474Z,45.17
2022-08-08T05:23:20.586Z,45.53
2022-08-08T05:25:49.686Z,45.47
2022-08-08T05:28:56.769Z,45.02
2022-08-08T05:31:19.310Z,45.17
2022-08-08T05:33:50.897Z,45.65
2022-08-08T05:36:25.438Z,46.29
2022-08-08T05:38:55.731Z,45.97
2022-08-08T05:41:27.827Z,46.70
2022-08-08T05:44:03.153Z,46.62
2022-08-08T05:46:32.518Z,47.34
2022-08-08T05:49:00.578Z,46.15
2022-08-08T05:51:27.775Z,46.50
2022-08-08T05:54:27.101Z,47.15
2022-08-08T05:57:04.741Z,46.96
2022-08-08T05:59:59.552Z,46.52
2022-08-08T06:02:43.458Z,47.13
2022-08-08T06:05:34.644Z,46.64
2022-08-08T06:08:01.963Z,46.71
2022-08-08T06:10:31.132Z,46.49
2022-08-08T06:12:58.420Z,47.22
2022-08-08T06:15:38.688Z,47.36
2022-08-08T06:18:20.266Z,47.09
2022-08-08T06:20:49.610Z,45.69
2022-08-08T06:23:17.616Z,46.19
2022-08-08T06:26:38.462Z,45.39
2022-08-08T06:29:49.295Z,46.10
2022-08-08T06:32:10.422Z,45.60
2022-08-08T06:34:52.627Z,45.32
2022-08-08T06:37:37.001Z,44.94
2022-08-08T06:40:07.181Z,44.49
2022-08-08T06:42:38.075Z,45.16
2022-08-08T06:45:05.836Z,45.65
2022-08-08T06:47:52.811Z,45.80
2022-08-08T06:50:32.178Z,45.53
2022-08-08T06:53:01.418Z,46.51
2022-08-08T06:55:42.115Z,45.98
2022-08-08T06:58:10.326Z,45.88
2022-08-08T07:00:40.981Z,45.72
2022-08-08T07:03:09.872Z,45.55
2022-08-08T07:06:02.002Z,44.94
2022-08-08T07:08:31.608Z,44.58
2022-08-08T07:10:59.339Z,43.76
2022-08-08T07:13:29.698Z,44.18
2022-08-08T07:16:05.017Z,43.14
2022-08-08T07:18:42.556Z,42.37
2022-08-08T07:21:18.441Z,41.45
2022-08-08T07:24:01.672Z,40.13
2022-08-08T07:26:35.210Z,41.50
2022-08-08T07:29:05.892Z,43.22
2022-08-08T07:31:36.430Z,40.68
2022-08-08T07:34:09.230Z,40.41
2022-08-08T07:36:37.478Z,41.14
2022-08-08T07:39:16.443Z,39.71
2022-08-08T07:42:03.609Z,39.06
2022-08-08T07:44:37.807Z,38.88
2022-08-08T07:47:09.118Z,39.60
2022-08-08T07:49:36.601Z,39.86
2022-08-08T07:52:13.256Z,39.86
2022-08-08T07:54:52.635Z,39.05
2022-08-08T07:57:22.790Z,39.44
2022-08-08T08:00:05.301Z,39.39
2022-08-08T08:02:55.792Z,38.43
2022-08-08T08:05:22.532Z,37.18
2022-08-08T08:08:04.432Z,36.80
2022-08-08T08:10:33.173Z,37.24
2022-08-08T08:13:25.423Z,38.59
2022-08-08T08:16:00.294Z,36.01
2022-08-08T08:18:52.118Z,37.36
2022-08-08T08:21:57.689Z,37.26
2022-08-08T08:24:30.664Z,32.86
2022-08-08T08:27:00.099Z,34.21
2022-08-08T08:29:30.497Z,30.55
2022-08-08T08:31:59.196Z,32.10
2022-08-08T08:34:32.252Z,32.50
2022-08-08T08:37:07.543Z,31.00
2022-08-08T08:39:59.838Z,33.42
2022-08-08T08:42:29.028Z,32.19
2022-08-08T08:45:21.795Z,32.10
2022-08-08T08:47:53.197Z,33.21
2022-08-08T08:50:33.415Z,35.79
2022-08-08T08:53:04.734Z,33.95
2022-08-08T08:55:50.414Z,34.91
2022-08-08T08:58:32.464Z,36.20
2022-08-08T09:01:08.999Z,38.10
2022-08-08T09:03:46.771Z,35.86
2022-08-08T09:06:28.645Z,36.31
2022-08-08T09:09:03.816Z,36.31
2022-08-08T09:11:33.492Z,37.16
2022-08-08T09:14:00.650Z,36.36
2022-08-08T09:16:29.027Z,37.41
2022-08-08T09:19:00.205Z,35.78
2022-08-08T09:21:56.004Z,34.88
2022-08-08T09:24:17.680Z,38.58
2022-08-08T09:26:51.638Z,36.92
2022-08-08T09:29:24.731Z,37.58
2022-08-08T09:31:56.181Z,36.49
2022-08-08T09:34:32.602Z,38.05
2022-08-08T09:37:39.558Z,38.27
2022-08-08T09:40:10.574Z,36.74
2022-08-08T09:42:44.201Z,35.93
2022-08-08T09:46:01.991Z,36.76
2022-08-08T09:48:16.303Z,36.81
2022-08-08T09:50:50.251Z,36.19
2022-08-08T09:53:32.014Z,39.01
2022-08-08T09:56:11.635Z,39.13
2022-08-08T09:58:44.846Z,37.28
2022-08-08T10:01:14.920Z,36.69
2022-08-08T10:04:02.230Z,37.53
2022-08-08T10:06:32.546Z,38.21
2022-08-08T10:09:02.229Z,38.52
2022-08-08T10:12:27.004Z,37.13
2022-08-08T10:14:28.459Z,38.55
2022-08-08T10:18:05.826Z,39.45
2022-08-08T10:19:58.591Z,39.38
2022-08-08T10:22:28.099Z,37.46
2022-08-08T10:25:02.408Z,37.30
2022-08-08T10:27:34.484Z,37.20
2022-08-08T10:30:04.648Z,38.77
2022-08-08T10:32:48.377Z,37.68
2022-08-08T10:36:07.076Z,37.53
2022-08-08T10:38:07.954Z,38.36
2022-08-08T10:40:37.631Z,36.77
2022-08-08T10:43:09.711Z,37.25
2022-08-08T10:45:56.301Z,37.41
2022-08-08T10:48:55.701Z,37.34
2022-08-08T10:51:24.187Z,37.12
2022-08-08T10:53:59.523Z,38.11
2022-08-08T10:56:34.562Z,39.29
2022-08-08T10:59:04.077Z,39.27
2022-08-08T11:01:33.373Z,41.18
2022-08-08T11:04:02.452Z,40.70
2022-08-08T11:06:34.469Z,42.44
2022-08-08T11:09:09.748Z,40.85
2022-08-08T11:12:05.287Z,40.37
2022-08-08T11:14:33.411Z,41.34
2022-08-08T11:17:03.853Z,41.93
2022-08-08T11:19:31.766Z,41.44
2022-08-08T11:22:00.257Z,42.75
2022-08-08T11:24:31.762Z,41.36
2022-08-08T11:27:10.310Z,41.39
2022-08-08T11:29:50.809Z,41.38
2022-08-08T11:32:29.338Z,43.25
2022-08-08T11:35:24.439Z,42.09
2022-08-08T11:38:36.497Z,43.89
2022-08-08T11:40:40.131Z,42.57
2022-08-08T11:43:11.537Z,42.31
2022-08-08T11:46:07.038Z,42.51
2022-08-08T11:48:28.905Z,45.25
2022-08-08T11:50:58.663Z,44.03
2022-08-08T11:53:26.313Z,44.21
2022-08-08T11:55:53.858Z,45.86
2022-08-08T11:58:31.917Z,45.59
2022-08-08T12:00:59.940Z,46.33
2022-08-08T12:03:30.715Z,45.71
2022-08-08T12:05:58.390Z,44.73
2022-08-08T12:08:30.287Z,45.00
2022-08-08T12:10:59.781Z,46.92
2022-08-08T12:13:37.875Z,46.73
2022-08-08T12:16:16.511Z,47.95
2022-08-08T12:18:46.596Z,46.67
2022-08-08T12:21:19.819Z,45.34
2022-08-08T12:24:28.144Z,45.22
2022-08-08T12:26:57.106Z,45.50
2022-08-08T12:29:42.435Z,44.84
2022-08-08T12:32:13.582Z,46.17
2022-08-08T12:34:50.355Z,46.61
2022-08-08T12:37:40.789Z,45.56
2022-08-08T12:40:22.603Z,44.89
2022-08-08T12:42:51.603Z,45.20
2022-08-08T12:45:54.237Z,46.30
2022-08-08T12:48:32.140Z,45.41
2022-08-08T12:50:57.685Z,45.29
2022-08-08T12:53:37.671Z,45.60
2022-08-08T12:56:18.024Z,46.06
2022-08-08T12:58:53.985Z,45.85
2022-08-08T13:01:35.014Z,46.36
2022-08-08T13:04:18.361Z,45.27
2022-08-08T13:06:54.233Z,45.28
2022-08-08T13:09:33.086Z,45.13
2022-08-08T13:12:26.844Z,44.14
2022-08-08T13:14:52.997Z,43.37
2022-08-08T13:18:07.873Z,43.76
2022-08-08T13:20:17.393Z,42.70
2022-08-08T13:23:26.941Z,43.19
2022-08-08T13:25:50.272Z,42.82
2022-08-08T13:28:32.213Z,41.75
2022-08-08T13:31:01.597Z,42.80
2022-08-08T13:33:42.166Z,42.67
2022-08-08T13:36:10.926Z,43.29
2022-08-08T13:38:39.869Z,42.63
2022-08-08T13:41:06.979Z,42.64
2022-08-08T13:43:45.360Z,42.18
2022-08-08T13:46:28.746Z,42.96
2022-08-08T13:50:33.546Z,42.98
2022-08-08T13:52:05.340Z,42.40
2022-08-08T13:54:33.549Z,40.22
2022-08-08T13:57:00.949Z,41.35
2022-08-08T13:59:39.908Z,41.13
2022-08-08T14:02:16.233Z,40.71
2022-08-08T14:04:53.315Z,40.83
2022-08-08T14:07:22.048Z,42.07
2022-08-08T14:10:05.072Z,38.71
2022-08-08T14:12:38.821Z,39.64
2022-08-08T14:15:11.166Z,39.21
2022-08-08T14:17:57.796Z,38.57
2022-08-08T14:20:57.852Z,39.81
2022-08-08T14:24:04.766Z,39.65
2022-08-08T14:26:22.777Z,40.98
2022-08-08T14:28:56.027Z,42.62
2022-08-08T14:32:06.402Z,43.01
2022-08-08T14:34:22.895Z,43.85
2022-08-08T14:36:53.458Z,43.60
2022-08-08T14:39:24.742Z,44.40
2022-08-08T14:41:59.406Z,46.91
2022-08-08T14:44:33.535Z,45.12
2022-08-08T14:47:02.706Z,44.46
2022-08-08T14:50:06.575Z,45.36
2022-08-08T14:52:46.284Z,44.59
2022-08-08T14:55:14.526Z,44.00
2022-08-08T14:58:03.214Z,44.63
2022-08-08T15:00:34.013Z,44.80
2022-08-08T15:03:16.183Z,44.25
2022-08-08T15:05:54.297Z,44.47
2022-08-08T15:08:34.452Z,44.70
2022-08-08T15:11:10.263Z,45.54
2022-08-08T15:14:01.498Z,46.57
2022-08-08T15:16:28.124Z,47.66
2022-08-08T15:18:55.666Z,45.84
2022-08-08T15:21:22.365Z,46.63
2022-08-08T15:23:54.452Z,46.32
2022-08-08T15:26:21.513Z,47.99
2022-08-08T15:28:54.202Z,46.71
2022-08-08T15:31:21.815Z,48.10
2022-08-08T15:34:29.016Z,46.40
2022-08-08T15:36:56.549Z,45.51
2022-08-08T15:39:23.338Z,45.99
2022-08-08T15:41:52.604Z,46.47
2022-08-08T15:44:21.185Z,46.26
2022-08-08T15:46:51.042Z,46.32
2022-08-08T15:49:40.756Z,47.34
2022-08-08T15:52:08.703Z,47.00
2022-08-08T15:54:38.469Z,47.28
2022-08-08T15:57:07.779Z,47.76
2022-08-08T16:00:25.308Z,48.45
2022-08-08T16:02:30.486Z,47.66
2022-08-08T16:04:59.551Z,46.62
2022-08-08T16:07:51.074Z,47.11
2022-08-08T16:13:14.405Z,46.34
2022-08-08T16:13:33.762Z,46.11
2022-08-08T16:15:57.228Z,45.12
2022-08-08T16:18:32.177Z,46.75
2022-08-08T16:21:00.974Z,45.44
2022-08-08T16:23:32.145Z,44.98
2022-08-08T16:26:04.238Z,46.00
2022-08-08T16:28:35.790Z,45.40
2022-08-08T16:31:07.591Z,44.72
2022-08-08T16:33:39.744Z,44.52
2022-08-08T16:36:13.052Z,45.02
2022-08-08T16:38:47.356Z,44.64
2022-08-08T16:41:20.164Z,44.06
2022-08-08T16:43:49.311Z,43.47
2022-08-08T16:46:36.386Z,43.27
2022-08-08T16:49:05.181Z,44.35
2022-08-08T16:55:05.138Z,43.80
2022-08-08T16:55:23.924Z,43.23
2022-08-08T16:57:27.967Z,43.42
2022-08-08T16:59:55.069Z,43.48
2022-08-08T17:02:32.889Z,43.14
2022-08-08T17:05:06.380Z,43.98
2022-08-08T17:07:33.160Z,43.93
2022-08-08T17:10:05.271Z,44.98
2022-08-08T17:12:34.702Z,44.54
2022-08-08T17:15:17.723Z,45.00
2022-08-08T17:18:03.461Z,44.57
2022-08-08T17:20:39.750Z,44.92
2022-08-08T17:23:17.545Z,44.87
2022-08-08T17:25:54.529Z,44.95
2022-08-08T17:28:33.943Z,45.62
2022-08-08T17:31:44.334Z,46.82
2022-08-08T17:34:49.773Z,47.13
2022-08-08T17:37:00.593Z,47.37
2022-08-08T17:40:03.953Z,47.38
2022-08-08T17:42:13.837Z,48.10
2022-08-08T17:44:44.266Z,48.50
2022-08-08T17:47:19.541Z,49.02
2022-08-08T17:49:52.760Z,49.38
2022-08-08T17:52:20.282Z,49.42
2022-08-08T17:54:55.848Z,48.80
2022-08-08T17:57:24.152Z,48.31
2022-08-08T17:59:51.686Z,49.18
2022-08-08T18:02:28.585Z,48.36
2022-08-08T18:04:58.866Z,48.47
2022-08-08T18:08:04.011Z,48.99
2022-08-08T18:10:15.589Z,50.65
2022-08-08T18:12:44.306Z,50.14
2022-08-08T18:15:13.490Z,51.16
2022-08-08T18:18:09.011Z,50.26
2022-08-08T18:20:37.263Z,50.01
2022-08-08T18:23:15.136Z,50.10
2022-08-08T18:25:45.371Z,49.67
2022-08-08T18:28:13.500Z,48.47
2022-08-08T18:30:44.446Z,48.62
2022-08-08T18:33:19.931Z,49.17
2022-08-08T18:36:03.794Z,47.95
2022-08-08T18:38:32.266Z,48.47
2022-08-08T18:41:01.109Z,48.41
2022-08-08T18:43:58.423Z,50.12
2022-08-08T18:46:55.690Z,49.54
2022-08-08T18:49:12.571Z,49.38
2022-08-08T18:51:53.512Z,49.89
2022-08-08T18:54:24.751Z,49.32
2022-08-08T18:56:57.286Z,49.61
2022-08-08T18:59:24.480Z,49.72
2022-08-08T19:02:27.206Z,49.72
2022-08-08T19:04:42.920Z,49.66
2022-08-08T19:07:10.572Z,50.04
2022-08-08T19:09:49.071Z,49.90
2022-08-08T19:12:26.368Z,50.73
2022-08-08T19:14:53.523Z,50.10
2022-08-08T19:17:29.477Z,49.70
2022-08-08T19:20:08.964Z,49.67
2022-08-08T19:22:36.073Z,50.23
2022-08-08T19:26:02.516Z,50.45
2022-08-08T19:27:55.640Z,50.77
2022-08-08T19:30:26.546Z,51.93
2022-08-08T19:32:54.080Z,51.76
2022-08-08T19:35:45.234Z,50.78
2022-08-08T19:38:17.405Z,51.86
2022-08-08T19:40:54.340Z,52.12
2022-08-08T19:43:28.145Z,52.56
2022-08-08T19:45:58.564Z,52.56
2022-08-08T19:48:30.624Z,52.15
2022-08-08T19:50:59.407Z,52.92
2022-08-08T19:53:47.052Z,52.78
2022-08-08T19:56:16.321Z,52.01
2022-08-08T19:58:52.762Z,52.38
2022-08-08T20:01:25.765Z,52.30
2022-08-08T20:04:03.438Z,52.66
2022-08-08T20:06:30.583Z,52.81
2022-08-08T20:09:08.875Z,52.81
2022-08-08T20:11:42.870Z,52.16
2022-08-08T20:14:31.783Z,52.46
2022-08-08T20:16:59.517Z,53.05
2022-08-08T20:19:34.384Z,51.78
2022-08-08T20:22:13.229Z,52.40
2022-08-08T20:24:48.287Z,54.31
2022-08-08T20:27:20.623Z,52.38
2022-08-08T20:30:01.059Z,51.79
2022-08-08T20:32:29.662Z,51.78
2022-08-08T20:35:00.732Z,51.28
2022-08-08T20:37:47.031Z,50.39
2022-08-08T20:40:17.968Z,50.36
2022-08-08T20:43:00.657Z,50.47
2022-08-08T20:45:57.591Z,49.70
2022-08-08T20:48:21.174Z,48.77
2022-08-08T20:50:53.415Z,49.41
2022-08-08T20:54:00.176Z,48.65
2022-08-08T20:56:13.899Z,48.44
2022-08-08T20:58:47.507Z,47.91
2022-08-08T21:01:20.202Z,46.91
2022-08-08T21:03:55.382Z,46.57
2022-08-08T21:06:23.421Z,46.60
2022-08-08T21:09:10.355Z,46.32
2022-08-08T21:11:50.505Z,46.56
2022-08-08T21:14:30.457Z,45.90
2022-08-08T21:17:01.325Z,45.87
2022-08-08T21:19:44.146Z,45.38
2022-08-08T21:22:13.731Z,46.01
2022-08-08T21:24:41.746Z,45.71
2022-08-08T21:28:06.757Z,45.54
2022-08-08T21:30:18.632Z,44.96
2022-08-08T21:32:52.119Z,44.97
2022-08-08T21:36:16.798Z,45.14
2022-08-08T21:38:16.434Z,44.65
2022-08-08T21:40:54.796Z,44.62
2022-08-08T21:43:33.940Z,44.62
2022-08-08T21:48:07.163Z,44.62
2022-08-08T21:48:53.962Z,44.89
2022-08-08T21:54:30.978Z,45.17
2022-08-08T21:54:32.313Z,45.37
2022-08-08T21:56:57.095Z,45.78
2022-08-08T21:59:28.355Z,46.08
2022-08-08T22:02:11.150Z,45.79
2022-08-08T22:04:40.090Z,45.62
2022-08-08T22:07:07.171Z,46.20
2022-08-08T22:09:37.452Z,45.90
2022-08-08T22:12:09.323Z,46.30
2022-08-08T22:14:42.570Z,46.37
2022-08-08T22:17:10.586Z,46.10
2022-08-08T22:20:10.642Z,46.71
2022-08-08T22:22:29.222Z,46.42
2022-08-08T22:24:58.314Z,46.63
2022-08-08T22:27:38.923Z,45.92
2022-08-08T22:30:14.640Z,46.78
2022-08-08T22:32:41.865Z,46.23
2022-08-08T22:35:16.875Z,46.69
2022-08-08T22:37:54.675Z,46.41
2022-08-08T22:40:22.141Z,46.76
2022-08-08T22:42:48.878Z,46.75
2022-08-08T22:45:20.147Z,46.87
2022-08-08T22:47:52.132Z,47.02
2022-08-08T22:50:25.189Z,46.54
2022-08-08T22:54:32.700Z,46.75
2022-08-08T22:55:58.785Z,47.02
2022-08-08T22:58:29.179Z,47.35
2022-08-08T23:00:59.843Z,47.77
2022-08-08T23:03:52.516Z,47.57
2022-08-08T23:06:16.862Z,48.94
2022-08-08T23:08:55.851Z,48.54
2022-08-08T23:12:17.312Z,48.56
2022-08-08T23:14:16.991Z,48.54
2022-08-08T23:16:47.054Z,49.36
2022-08-08T23:19:17.882Z,49.61
2022-08-08T23:21:45.820Z,48.94
2022-08-08T23:24:22.821Z,48.79
2022-08-08T23:26:55.357Z,48.55
2022-08-08T23:29:31.247Z,48.36
2022-08-08T23:31:58.780Z,48.89
2022-08-08T23:34:25.700Z,48.91
2022-08-08T23:36:58.806Z,48.25
2022-08-08T23:39:32.159Z,48.68
2022-08-08T23:42:09.015Z,48.87
2022-08-08T23:44:39.311Z,48.41
2022-08-08T23:49:04.474Z,48.08
2022-08-08T23:50:03.038Z,48.42
2022-08-08T23:52:32.262Z,48.25
2022-08-08T23:55:07.306Z,47.63
2022-08-08T23:57:53.277Z,48.25
